sensor_id;sensor_type;location;lat;lon;timestamp;pressure;altitude;pressure_sealevel;temperature
24201;BMP280;2801;50.972;7.856;2023-02-01T00:00:56;97826.22;;;5.52
24201;BMP280;2801;50.972;7.856;2023-02-01T00:03:23;97821.69;;;5.53
24201;BMP280;2801;50.972;7.856;2023-02-01T00:05:57;97825.78;;;5.45
24201;BMP280;2801;50.972;7.856;2023-02-01T00:08:24;97827.56;;;5.50
24201;BMP280;2801;50.972;7.856;2023-02-01T00:11:04;97824.41;;;5.48
24201;BMP280;2801;50.972;7.856;2023-02-01T00:13:34;97815.97;;;5.41
24201;BMP280;2801;50.972;7.856;2023-02-01T00:16:12;97808.00;;;5.41
24201;BMP280;2801;50.972;7.856;2023-02-01T00:18:41;97820.75;;;5.39
24201;BMP280;2801;50.972;7.856;2023-02-01T00:21:10;97815.44;;;5.39
24201;BMP280;2801;50.972;7.856;2023-02-01T00:23:37;97817.06;;;5.40
24201;BMP280;2801;50.972;7.856;2023-02-01T00:26:13;97817.59;;;5.37
24201;BMP280;2801;50.972;7.856;2023-02-01T00:28:41;97816.25;;;5.39
24201;BMP280;2801;50.972;7.856;2023-02-01T00:31:08;97809.91;;;5.35
24201;BMP280;2801;50.972;7.856;2023-02-01T00:33:35;97822.13;;;5.36
24201;BMP280;2801;50.972;7.856;2023-02-01T00:36:06;97821.63;;;5.34
24201;BMP280;2801;50.972;7.856;2023-02-01T00:38:38;97824.00;;;5.36
24201;BMP280;2801;50.972;7.856;2023-02-01T00:41:17;97822.41;;;5.35
24201;BMP280;2801;50.972;7.856;2023-02-01T00:43:45;97821.34;;;5.36
24201;BMP280;2801;50.972;7.856;2023-02-01T00:46:14;97810.72;;;5.36
24201;BMP280;2801;50.972;7.856;2023-02-01T00:48:43;97808.28;;;5.39
24201;BMP280;2801;50.972;7.856;2023-02-01T00:51:18;97804.06;;;5.33
24201;BMP280;2801;50.972;7.856;2023-02-01T00:53:46;97808.06;;;5.36
24201;BMP280;2801;50.972;7.856;2023-02-01T00:56:13;97815.22;;;5.35
24201;BMP280;2801;50.972;7.856;2023-02-01T00:58:40;97817.06;;;5.40
24201;BMP280;2801;50.972;7.856;2023-02-01T01:01:22;97815.44;;;5.39
24201;BMP280;2801;50.972;7.856;2023-02-01T01:03:53;97827.97;;;5.38
24201;BMP280;2801;50.972;7.856;2023-02-01T01:06:28;97820.81;;;5.34
24201;BMP280;2801;50.972;7.856;2023-02-01T01:08:59;97813.09;;;5.37
24201;BMP280;2801;50.972;7.856;2023-02-01T01:11:32;97809.09;;;5.35
24201;BMP280;2801;50.972;7.856;2023-02-01T01:14:00;97809.38;;;5.33
24201;BMP280;2801;50.972;7.856;2023-02-01T01:16:30;97804.31;;;5.37
24201;BMP280;2801;50.972;7.856;2023-02-01T01:18:58;97809.91;;;5.35
24201;BMP280;2801;50.972;7.856;2023-02-01T01:21:26;97789.44;;;5.36
24201;BMP280;2801;50.972;7.856;2023-02-01T01:23:53;97774.28;;;5.36
24201;BMP280;2801;50.972;7.856;2023-02-01T01:26:23;97756.47;;;5.37
24201;BMP280;2801;50.972;7.856;2023-02-01T01:28:52;97763.41;;;5.33
24201;BMP280;2801;50.972;7.856;2023-02-01T01:31:20;97775.91;;;5.32
24201;BMP280;2801;50.972;7.856;2023-02-01T01:33:53;97775.16;;;5.27
24201;BMP280;2801;50.972;7.856;2023-02-01T01:36:21;97774.59;;;5.30
24201;BMP280;2801;50.972;7.856;2023-02-01T01:38:48;97784.97;;;5.31
24201;BMP280;2801;50.972;7.856;2023-02-01T01:41:21;97790.03;;;5.28
24201;BMP280;2801;50.972;7.856;2023-02-01T01:44:02;97785.84;;;5.22
24201;BMP280;2801;50.972;7.856;2023-02-01T01:46:39;97788.50;;;5.22
24201;BMP280;2801;50.972;7.856;2023-02-01T01:49:33;97785.59;;;5.18
24201;BMP280;2801;50.972;7.856;2023-02-01T01:52:02;97787.22;;;5.19
24201;BMP280;2801;50.972;7.856;2023-02-01T01:54:36;97792.75;;;5.23
24201;BMP280;2801;50.972;7.856;2023-02-01T01:57:10;97789.06;;;5.19
24201;BMP280;2801;50.972;7.856;2023-02-01T01:59:40;97794.91;;;5.21
24201;BMP280;2801;50.972;7.856;2023-02-01T02:02:08;97796.97;;;5.24
24201;BMP280;2801;50.972;7.856;2023-02-01T02:04:36;97790.34;;;5.26
24201;BMP280;2801;50.972;7.856;2023-02-01T02:07:11;97794.06;;;5.25
24201;BMP280;2801;50.972;7.856;2023-02-01T02:09:39;97796.22;;;5.23
24201;BMP280;2801;50.972;7.856;2023-02-01T02:12:13;97789.53;;;5.26
24201;BMP280;2801;50.972;7.856;2023-02-01T02:14:40;97807.41;;;5.20
24201;BMP280;2801;50.972;7.856;2023-02-01T02:23:29;97767.06;;;5.13
24201;BMP280;2801;50.972;7.856;2023-02-01T02:32:43;97758.94;;;5.00
24201;BMP280;2801;50.972;7.856;2023-02-01T02:35:16;97754.94;;;5.02
24201;BMP280;2801;50.972;7.856;2023-02-01T02:38:12;97745.72;;;4.95
24201;BMP280;2801;50.972;7.856;2023-02-01T02:41:06;97752.16;;;4.89
24201;BMP280;2801;50.972;7.856;2023-02-01T02:43:53;97758.25;;;4.89
24201;BMP280;2801;50.972;7.856;2023-02-01T02:46:49;97750.03;;;4.86
24201;BMP280;2801;50.972;7.856;2023-02-01T02:49:49;97743.47;;;4.78
24201;BMP280;2801;50.972;7.856;2023-02-01T02:52:51;97741.69;;;4.69
24201;BMP280;2801;50.972;7.856;2023-02-01T02:55:40;97762.13;;;4.73
24201;BMP280;2801;50.972;7.856;2023-02-01T02:58:10;97755.75;;;4.69
24201;BMP280;2801;50.972;7.856;2023-02-01T03:00:56;97766.94;;;4.66
24201;BMP280;2801;50.972;7.856;2023-02-01T03:03:43;97764.53;;;4.70
24201;BMP280;2801;50.972;7.856;2023-02-01T03:06:33;97744.09;;;4.65
24201;BMP280;2801;50.972;7.856;2023-02-01T03:09:05;97749.66;;;4.69
24201;BMP280;2801;50.972;7.856;2023-02-01T03:11:35;97740.63;;;4.70
24201;BMP280;2801;50.972;7.856;2023-02-01T03:14:27;97731.84;;;4.69
24201;BMP280;2801;50.972;7.856;2023-02-01T03:17:05;97727.06;;;4.71
24201;BMP280;2801;50.972;7.856;2023-02-01T03:19:39;97721.28;;;4.64
24201;BMP280;2801;50.972;7.856;2023-02-01T03:22:15;97732.22;;;4.58
24201;BMP280;2801;50.972;7.856;2023-02-01T03:24:56;97735.22;;;4.46
24201;BMP280;2801;50.972;7.856;2023-02-01T03:27:36;97731.31;;;4.39
24201;BMP280;2801;50.972;7.856;2023-02-01T03:30:25;97736.41;;;4.30
24201;BMP280;2801;50.972;7.856;2023-02-01T03:32:58;97734.31;;;4.27
24201;BMP280;2801;50.972;7.856;2023-02-01T03:35:33;97744.44;;;4.20
24201;BMP280;2801;50.972;7.856;2023-02-01T03:38:12;97739.69;;;4.12
24201;BMP280;2801;50.972;7.856;2023-02-01T03:40:45;97746.63;;;4.08
24201;BMP280;2801;50.972;7.856;2023-02-01T03:43:18;97744.50;;;4.05
24201;BMP280;2801;50.972;7.856;2023-02-01T03:45:54;97746.41;;;4.05
24201;BMP280;2801;50.972;7.856;2023-02-01T03:48:27;97743.75;;;4.05
24201;BMP280;2801;50.972;7.856;2023-02-01T03:50:59;97758.31;;;4.07
24201;BMP280;2801;50.972;7.856;2023-02-01T03:53:28;97755.34;;;4.14
24201;BMP280;2801;50.972;7.856;2023-02-01T03:55:55;97745.50;;;4.19
24201;BMP280;2801;50.972;7.856;2023-02-01T03:58:23;97748.91;;;4.25
24201;BMP280;2801;50.972;7.856;2023-02-01T04:00:57;97739.88;;;4.26
24201;BMP280;2801;50.972;7.856;2023-02-01T04:03:27;97741.22;;;4.28
24201;BMP280;2801;50.972;7.856;2023-02-01T04:05:54;97742.78;;;4.29
24201;BMP280;2801;50.972;7.856;2023-02-01T04:08:23;97733.28;;;4.23
24201;BMP280;2801;50.972;7.856;2023-02-01T04:10:50;97738.56;;;4.28
24201;BMP280;2801;50.972;7.856;2023-02-01T04:13:17;97739.09;;;4.25
24201;BMP280;2801;50.972;7.856;2023-02-01T04:15:43;97734.56;;;4.31
24201;BMP280;2801;50.972;7.856;2023-02-01T04:18:12;97735.59;;;4.30
24201;BMP280;2801;50.972;7.856;2023-02-01T04:20:39;97734.00;;;4.34
24201;BMP280;2801;50.972;7.856;2023-02-01T04:23:06;97724.97;;;4.35
24201;BMP280;2801;50.972;7.856;2023-02-01T04:25:32;97731.59;;;4.37
24201;BMP280;2801;50.972;7.856;2023-02-01T04:27:59;97730.25;;;4.40
24201;BMP280;2801;50.972;7.856;2023-02-01T04:30:26;97728.97;;;4.32
24201;BMP280;2801;50.972;7.856;2023-02-01T04:32:53;97728.38;;;4.40
24201;BMP280;2801;50.972;7.856;2023-02-01T04:35:19;97725.97;;;4.44
24201;BMP280;2801;50.972;7.856;2023-02-01T04:37:46;97715.59;;;4.47
24201;BMP280;2801;50.972;7.856;2023-02-01T04:40:13;97707.34;;;4.49
24201;BMP280;2801;50.972;7.856;2023-02-01T04:42:40;97708.13;;;4.49
24201;BMP280;2801;50.972;7.856;2023-02-01T04:45:08;97693.28;;;4.48
24201;BMP280;2801;50.972;7.856;2023-02-01T04:47:35;97693.56;;;4.47
24201;BMP280;2801;50.972;7.856;2023-02-01T04:50:02;97691.44;;;4.49
24201;BMP280;2801;50.972;7.856;2023-02-01T04:52:29;97682.13;;;4.46
24201;BMP280;2801;50.972;7.856;2023-02-01T04:54:56;97670.50;;;4.42
24201;BMP280;2801;50.972;7.856;2023-02-01T04:57:25;97675.84;;;4.37
24201;BMP280;2801;50.972;7.856;2023-02-01T04:59:52;97680.41;;;4.32
24201;BMP280;2801;50.972;7.856;2023-02-01T05:02:19;97667.19;;;4.27
24201;BMP280;2801;50.972;7.856;2023-02-01T05:04:46;97672.22;;;4.23
24201;BMP280;2801;50.972;7.856;2023-02-01T05:07:12;97684.19;;;4.21
24201;BMP280;2801;50.972;7.856;2023-02-01T05:09:39;97693.50;;;4.18
24201;BMP280;2801;50.972;7.856;2023-02-01T05:12:07;97693.22;;;4.20
24201;BMP280;2801;50.972;7.856;2023-02-01T05:14:53;97698.78;;;4.23
24201;BMP280;2801;50.972;7.856;2023-02-01T05:17:20;97692.38;;;4.29
24201;BMP280;2801;50.972;7.856;2023-02-01T05:19:47;97686.25;;;4.34
24201;BMP280;2801;50.972;7.856;2023-02-01T05:22:14;97691.72;;;4.42
24201;BMP280;2801;50.972;7.856;2023-02-01T05:24:40;97696.53;;;4.40
24201;BMP280;2801;50.972;7.856;2023-02-01T05:27:07;97693.00;;;4.50
24201;BMP280;2801;50.972;7.856;2023-02-01T05:29:34;97697.75;;;4.53
24201;BMP280;2801;50.972;7.856;2023-02-01T05:32:01;97700.88;;;4.60
24201;BMP280;2801;50.972;7.856;2023-02-01T05:34:47;97692.34;;;4.63
24201;BMP280;2801;50.972;7.856;2023-02-01T05:37:13;97697.09;;;4.66
24201;BMP280;2801;50.972;7.856;2023-02-01T05:39:40;97694.66;;;4.69
24201;BMP280;2801;50.972;7.856;2023-02-01T05:42:07;97697.31;;;4.69
24201;BMP280;2801;50.972;7.856;2023-02-01T05:44:34;97705.28;;;4.74
24201;BMP280;2801;50.972;7.856;2023-02-01T05:47:00;97709.44;;;4.80
24201;BMP280;2801;50.972;7.856;2023-02-01T05:49:27;97694.31;;;4.81
24201;BMP280;2801;50.972;7.856;2023-02-01T05:51:54;97692.97;;;4.83
24201;BMP280;2801;50.972;7.856;2023-02-01T05:54:20;97688.16;;;4.85
24201;BMP280;2801;50.972;7.856;2023-02-01T05:56:47;97685.25;;;4.87
24201;BMP280;2801;50.972;7.856;2023-02-01T05:59:14;97676.00;;;4.79
24201;BMP280;2801;50.972;7.856;2023-02-01T06:01:41;97689.47;;;4.88
24201;BMP280;2801;50.972;7.856;2023-02-01T06:04:08;97693.44;;;4.90
24201;BMP280;2801;50.972;7.856;2023-02-01T06:06:35;97698.75;;;4.90
24201;BMP280;2801;50.972;7.856;2023-02-01T06:09:03;97703.25;;;4.90
24201;BMP280;2801;50.972;7.856;2023-02-01T06:11:30;97710.72;;;4.88
24201;BMP280;2801;50.972;7.856;2023-02-01T06:13:59;97694.72;;;4.93
24201;BMP280;2801;50.972;7.856;2023-02-01T06:16:26;97697.63;;;4.96
24201;BMP280;2801;50.972;7.856;2023-02-01T06:18:54;97697.56;;;5.01
24201;BMP280;2801;50.972;7.856;2023-02-01T06:21:21;97694.38;;;4.99
24201;BMP280;2801;50.972;7.856;2023-02-01T06:23:54;97693.88;;;4.97
24201;BMP280;2801;50.972;7.856;2023-02-01T06:26:24;97690.16;;;4.98
24201;BMP280;2801;50.972;7.856;2023-02-01T06:28:51;97669.19;;;4.97
24201;BMP280;2801;50.972;7.856;2023-02-01T06:31:19;97680.06;;;5.00
24201;BMP280;2801;50.972;7.856;2023-02-01T06:33:46;97675.28;;;4.97
24201;BMP280;2801;50.972;7.856;2023-02-01T06:36:13;97663.13;;;4.91
24201;BMP280;2801;50.972;7.856;2023-02-01T06:38:42;97675.78;;;4.99
24201;BMP280;2801;50.972;7.856;2023-02-01T06:41:09;97658.56;;;4.97
24201;BMP280;2801;50.972;7.856;2023-02-01T06:43:36;97673.44;;;4.98
24201;BMP280;2801;50.972;7.856;2023-02-01T06:46:07;97689.06;;;4.99
24201;BMP280;2801;50.972;7.856;2023-02-01T06:48:34;97706.09;;;4.98
24201;BMP280;2801;50.972;7.856;2023-02-01T06:51:01;97700.78;;;4.98
24201;BMP280;2801;50.972;7.856;2023-02-01T06:53:28;97703.72;;;4.97
24201;BMP280;2801;50.972;7.856;2023-02-01T06:55:58;97698.94;;;4.99
24201;BMP280;2801;50.972;7.856;2023-02-01T06:58:32;97702.94;;;4.96
24201;BMP280;2801;50.972;7.856;2023-02-01T07:01:06;97702.94;;;4.96
24201;BMP280;2801;50.972;7.856;2023-02-01T07:03:33;97700.03;;;4.93
24201;BMP280;2801;50.972;7.856;2023-02-01T07:06:00;97710.63;;;4.98
24201;BMP280;2801;50.972;7.856;2023-02-01T07:08:29;97705.88;;;4.95
24201;BMP280;2801;50.972;7.856;2023-02-01T07:10:57;97696.81;;;4.96
24201;BMP280;2801;50.972;7.856;2023-02-01T07:13:27;97701.06;;;4.97
24201;BMP280;2801;50.972;7.856;2023-02-01T07:15:54;97716.22;;;4.96
24201;BMP280;2801;50.972;7.856;2023-02-01T07:18:20;97706.91;;;4.99
24201;BMP280;2801;50.972;7.856;2023-02-01T07:20:50;97705.34;;;4.93
24201;BMP280;2801;50.972;7.856;2023-02-01T07:23:18;97721.53;;;4.96
24201;BMP280;2801;50.972;7.856;2023-02-01T07:25:46;97716.72;;;4.98
24201;BMP280;2801;50.972;7.856;2023-02-01T07:28:13;97729.50;;;4.96
24201;BMP280;2801;50.972;7.856;2023-02-01T07:30:40;97724.69;;;4.98
24201;BMP280;2801;50.972;7.856;2023-02-01T07:33:07;97728.19;;;4.94
24201;BMP280;2801;50.972;7.856;2023-02-01T07:35:34;97734.03;;;4.96
24201;BMP280;2801;50.972;7.856;2023-02-01T07:38:01;97748.09;;;4.96
24201;BMP280;2801;50.972;7.856;2023-02-01T07:40:28;97736.91;;;4.99
24201;BMP280;2801;50.972;7.856;2023-02-01T07:42:56;97741.47;;;4.94
24201;BMP280;2801;50.972;7.856;2023-02-01T07:45:23;97749.97;;;4.96
24201;BMP280;2801;50.972;7.856;2023-02-01T07:47:52;97740.91;;;4.97
24201;BMP280;2801;50.972;7.856;2023-02-01T07:50:20;97742.00;;;4.96
24201;BMP280;2801;50.972;7.856;2023-02-01T07:52:47;97750.25;;;4.94
24201;BMP280;2801;50.972;7.856;2023-02-01T07:55:14;97748.66;;;4.93
24201;BMP280;2801;50.972;7.856;2023-02-01T07:57:41;97743.84;;;4.95
24201;BMP280;2801;50.972;7.856;2023-02-01T08:00:09;97742.78;;;4.96
24201;BMP280;2801;50.972;7.856;2023-02-01T08:02:58;97742.50;;;4.98
24201;BMP280;2801;50.972;7.856;2023-02-01T08:05:26;97743.34;;;4.93
24201;BMP280;2801;50.972;7.856;2023-02-01T08:07:53;97747.56;;;4.94
24201;BMP280;2801;50.972;7.856;2023-02-01T08:10:20;97750.75;;;4.96
24201;BMP280;2801;50.972;7.856;2023-02-01T08:12:47;97749.16;;;4.95
24201;BMP280;2801;50.972;7.856;2023-02-01T08:15:15;97748.09;;;4.96
24201;BMP280;2801;50.972;7.856;2023-02-01T08:17:50;97753.16;;;4.93
24201;BMP280;2801;50.972;7.856;2023-02-01T08:20:18;97765.97;;;4.91
24201;BMP280;2801;50.972;7.856;2023-02-01T08:22:45;97779.19;;;4.96
24201;BMP280;2801;50.972;7.856;2023-02-01T08:25:12;97772.31;;;4.90
24201;BMP280;2801;50.972;7.856;2023-02-01T08:27:39;97765.69;;;4.92
24201;BMP280;2801;50.972;7.856;2023-02-01T08:30:07;97773.66;;;4.92
24201;BMP280;2801;50.972;7.856;2023-02-01T08:32:34;97765.09;;;4.95
24201;BMP280;2801;50.972;7.856;2023-02-01T08:35:03;97762.22;;;4.92
24201;BMP280;2801;50.972;7.856;2023-02-01T08:37:31;97764.34;;;4.90
24201;BMP280;2801;50.972;7.856;2023-02-01T08:39:58;97759.50;;;4.97
24201;BMP280;2801;50.972;7.856;2023-02-01T08:42:25;97766.19;;;4.94
24201;BMP280;2801;50.972;7.856;2023-02-01T08:45:10;97766.69;;;4.96
24201;BMP280;2801;50.972;7.856;2023-02-01T08:47:38;97774.41;;;4.98
24201;BMP280;2801;50.972;7.856;2023-02-01T08:50:05;97768.84;;;4.94
24201;BMP280;2801;50.972;7.856;2023-02-01T08:52:32;97773.13;;;4.90
24201;BMP280;2801;50.972;7.856;2023-02-01T08:54:59;97772.03;;;4.96
24201;BMP280;2801;50.972;7.856;2023-02-01T08:57:26;97778.66;;;4.94
24201;BMP280;2801;50.972;7.856;2023-02-01T08:59:53;97785.84;;;4.93
24201;BMP280;2801;50.972;7.856;2023-02-01T09:02:19;97783.19;;;4.93
24201;BMP280;2801;50.972;7.856;2023-02-01T09:04:46;97790.09;;;4.94
24201;BMP280;2801;50.972;7.856;2023-02-01T09:07:13;97781.84;;;4.96
24201;BMP280;2801;50.972;7.856;2023-02-01T09:09:40;97790.84;;;5.00
24201;BMP280;2801;50.972;7.856;2023-02-01T09:12:07;97783.13;;;4.98
24201;BMP280;2801;50.972;7.856;2023-02-01T09:14:34;97778.63;;;4.99
24201;BMP280;2801;50.972;7.856;2023-02-01T09:17:01;97783.41;;;5.02
24201;BMP280;2801;50.972;7.856;2023-02-01T09:19:28;97778.09;;;5.02
24201;BMP280;2801;50.972;7.856;2023-02-01T09:21:55;97787.91;;;5.01
24201;BMP280;2801;50.972;7.856;2023-02-01T09:24:22;97785.47;;;5.05
24201;BMP280;2801;50.972;7.856;2023-02-01T09:26:50;97783.06;;;5.08
24201;BMP280;2801;50.972;7.856;2023-02-01T09:29:17;97782.81;;;5.05
24201;BMP280;2801;50.972;7.856;2023-02-01T09:31:43;97776.94;;;5.08
24201;BMP280;2801;50.972;7.856;2023-02-01T09:34:28;97772.44;;;5.08
24201;BMP280;2801;50.972;7.856;2023-02-01T09:36:55;97788.38;;;5.08
24201;BMP280;2801;50.972;7.856;2023-02-01T09:39:22;97780.69;;;5.07
24201;BMP280;2801;50.972;7.856;2023-02-01T09:42:34;97784.38;;;5.11
24201;BMP280;2801;50.972;7.856;2023-02-01T09:48:23;97776.94;;;5.08
24201;BMP280;2801;50.972;7.856;2023-02-01T09:50:56;97773.94;;;5.14
24201;BMP280;2801;50.972;7.856;2023-02-01T09:53:39;97766.59;;;5.06
24201;BMP280;2801;50.972;7.856;2023-02-01T09:56:34;97766.84;;;5.10
24201;BMP280;2801;50.972;7.856;2023-02-01T09:59:31;97777.75;;;5.08
24201;BMP280;2801;50.972;7.856;2023-02-01T10:02:03;97762.50;;;5.19
24201;BMP280;2801;50.972;7.856;2023-02-01T10:04:31;97759.88;;;5.14
24201;BMP280;2801;50.972;7.856;2023-02-01T10:07:28;97774.97;;;5.18
24201;BMP280;2801;50.972;7.856;2023-02-01T10:10:23;97776.06;;;5.17
24201;BMP280;2801;50.972;7.856;2023-02-01T10:13:06;97769.91;;;5.22
24201;BMP280;2801;50.972;7.856;2023-02-01T10:19:00;97766.41;;;5.26
24201;BMP280;2801;50.972;7.856;2023-02-01T10:21:47;97769.28;;;5.30
24201;BMP280;2801;50.972;7.856;2023-02-01T10:24:37;97775.63;;;5.34
24201;BMP280;2801;50.972;7.856;2023-02-01T10:27:20;97776.66;;;5.38
24201;BMP280;2801;50.972;7.856;2023-02-01T10:29:58;97776.91;;;5.41
24201;BMP280;2801;50.972;7.856;2023-02-01T10:32:34;97777.63;;;5.47
24201;BMP280;2801;50.972;7.856;2023-02-01T10:35:20;97769.88;;;5.50
24201;BMP280;2801;50.972;7.856;2023-02-01T10:37:48;97769.66;;;5.47
24201;BMP280;2801;50.972;7.856;2023-02-01T10:40:25;97764.09;;;5.43
24201;BMP280;2801;50.972;7.856;2023-02-01T10:43:01;97756.94;;;5.44
24201;BMP280;2801;50.972;7.856;2023-02-01T10:45:33;97754.19;;;5.49
24201;BMP280;2801;50.972;7.856;2023-02-01T10:48:02;97756.38;;;5.47
24201;BMP280;2801;50.972;7.856;2023-02-01T10:50:38;97755.00;;;5.49
24201;BMP280;2801;50.972;7.856;2023-02-01T10:53:19;97756.38;;;5.47
24201;BMP280;2801;50.972;7.856;2023-02-01T10:55:53;97749.16;;;5.47
24201;BMP280;2801;50.972;7.856;2023-02-01T10:58:31;97759.69;;;5.57
24201;BMP280;2801;50.972;7.856;2023-02-01T11:01:06;97759.34;;;5.64
24201;BMP280;2801;50.972;7.856;2023-02-01T11:03:41;97752.16;;;5.64
24201;BMP280;2801;50.972;7.856;2023-02-01T11:06:45;97738.59;;;5.66
24201;BMP280;2801;50.972;7.856;2023-02-01T11:09:24;97733.69;;;5.73
24201;BMP280;2801;50.972;7.856;2023-02-01T11:11:53;97732.13;;;5.72
24201;BMP280;2801;50.972;7.856;2023-02-01T11:14:34;97728.44;;;5.68
24201;BMP280;2801;50.972;7.856;2023-02-01T11:20:02;97729.16;;;5.73
24201;BMP280;2801;50.972;7.856;2023-02-01T11:22:29;97733.13;;;5.76
24201;BMP280;2801;50.972;7.856;2023-02-01T11:24:58;97741.31;;;5.84
24201;BMP280;2801;50.972;7.856;2023-02-01T11:27:26;97722.59;;;5.89
24201;BMP280;2801;50.972;7.856;2023-02-01T11:30:00;97711.19;;;5.89
24201;BMP280;2801;50.972;7.856;2023-02-01T11:32:28;97714.28;;;5.96
24201;BMP280;2801;50.972;7.856;2023-02-01T11:35:06;97701.47;;;5.98
24201;BMP280;2801;50.972;7.856;2023-02-01T11:37:37;97709.09;;;6.04
24201;BMP280;2801;50.972;7.856;2023-02-01T11:40:34;97710.38;;;6.07
24201;BMP280;2801;50.972;7.856;2023-02-01T11:43:23;97706.72;;;6.03
24201;BMP280;2801;50.972;7.856;2023-02-01T11:46:02;97699.25;;;6.05
24201;BMP280;2801;50.972;7.856;2023-02-01T11:48:33;97701.06;;;6.09
24201;BMP280;2801;50.972;7.856;2023-02-01T12:01:18;97711.03;;;5.99
24201;BMP280;2801;50.972;7.856;2023-02-01T12:07:50;97698.25;;;6.01
24201;BMP280;2801;50.972;7.856;2023-02-01T12:13:52;97687.16;;;5.94
24201;BMP280;2801;50.972;7.856;2023-02-01T12:19:58;97671.63;;;6.01
24201;BMP280;2801;50.972;7.856;2023-02-01T12:25:57;97669.59;;;6.11
24201;BMP280;2801;50.972;7.856;2023-02-01T12:31:43;97668.88;;;6.24
24201;BMP280;2801;50.972;7.856;2023-02-01T12:49:11;97659.25;;;6.10
24201;BMP280;2801;50.972;7.856;2023-02-01T12:51:46;97647.69;;;6.01
24201;BMP280;2801;50.972;7.856;2023-02-01T12:57:30;97653.72;;;5.88
24201;BMP280;2801;50.972;7.856;2023-02-01T13:02:55;97655.13;;;5.80
24201;BMP280;2801;50.972;7.856;2023-02-01T13:08:52;97654.59;;;5.60
24201;BMP280;2801;50.972;7.856;2023-02-01T13:11:30;97645.34;;;5.57
24201;BMP280;2801;50.972;7.856;2023-02-01T13:14:25;97633.13;;;5.56
24201;BMP280;2801;50.972;7.856;2023-02-01T13:17:08;97632.41;;;5.51
24201;BMP280;2801;50.972;7.856;2023-02-01T13:19:50;97632.41;;;5.51
24201;BMP280;2801;50.972;7.856;2023-02-01T13:22:37;97636.63;;;5.52
24201;BMP280;2801;50.972;7.856;2023-02-01T13:25:47;97627.28;;;5.54
24201;BMP280;2801;50.972;7.856;2023-02-01T13:28:40;97626.50;;;5.54
24201;BMP280;2801;50.972;7.856;2023-02-01T13:31:32;97623.84;;;5.54
24201;BMP280;2801;50.972;7.856;2023-02-01T13:34:47;97622.53;;;5.51
24201;BMP280;2801;50.972;7.856;2023-02-01T13:37:53;97622.81;;;5.50
24201;BMP280;2801;50.972;7.856;2023-02-01T13:40:36;97611.91;;;5.51
24201;BMP280;2801;50.972;7.856;2023-02-01T13:43:14;97612.72;;;5.52
24201;BMP280;2801;50.972;7.856;2023-02-01T13:45:52;97619.09;;;5.51
24201;BMP280;2801;50.972;7.856;2023-02-01T13:48:38;97612.78;;;5.47
24201;BMP280;2801;50.972;7.856;2023-02-01T13:51:06;97612.53;;;5.43
24201;BMP280;2801;50.972;7.856;2023-02-01T13:53:36;97612.25;;;5.45
24201;BMP280;2801;50.972;7.856;2023-02-01T13:56:16;97614.19;;;5.39
24201;BMP280;2801;50.972;7.856;2023-02-01T13:58:47;97614.28;;;5.34
24201;BMP280;2801;50.972;7.856;2023-02-01T14:03:57;97615.91;;;5.30
24201;BMP280;2801;50.972;7.856;2023-02-01T14:11:50;97597.50;;;5.15
24201;BMP280;2801;50.972;7.856;2023-02-01T14:17:29;97595.63;;;5.16
24201;BMP280;2801;50.972;7.856;2023-02-01T14:20:42;97608.69;;;5.12
24201;BMP280;2801;50.972;7.856;2023-02-01T14:23:16;97582.78;;;4.99
24201;BMP280;2801;50.972;7.856;2023-02-01T14:25:44;97607.63;;;5.13
24201;BMP280;2801;50.972;7.856;2023-02-01T14:28:28;97611.13;;;5.09
24201;BMP280;2801;50.972;7.856;2023-02-01T14:30:58;97606.03;;;5.12
24201;BMP280;2801;50.972;7.856;2023-02-01T14:33:27;97608.13;;;5.15
24201;BMP280;2801;50.972;7.856;2023-02-01T14:36:08;97613.72;;;5.14
24201;BMP280;2801;50.972;7.856;2023-02-01T14:38:38;97618.25;;;5.13
24201;BMP280;2801;50.972;7.856;2023-02-01T14:41:28;97615.38;;;5.10
24201;BMP280;2801;50.972;7.856;2023-02-01T14:47:25;97612.38;;;5.16
24201;BMP280;2801;50.972;7.856;2023-02-01T14:49:57;97604.47;;;5.11
24201;BMP280;2801;50.972;7.856;2023-02-01T14:55:46;97606.84;;;5.13
24201;BMP280;2801;50.972;7.856;2023-02-01T15:01:30;97623.50;;;5.18
24201;BMP280;2801;50.972;7.856;2023-02-01T15:06:45;97620.56;;;5.20
24201;BMP280;2801;50.972;7.856;2023-02-01T15:09:24;97616.25;;;5.24
24201;BMP280;2801;50.972;7.856;2023-02-01T15:17:39;97622.88;;;5.26
24201;BMP280;2801;50.972;7.856;2023-02-01T15:20:23;97624.75;;;5.26
24201;BMP280;2801;50.972;7.856;2023-02-01T15:23:05;97636.66;;;5.28
24201;BMP280;2801;50.972;7.856;2023-02-01T15:25:36;97625.47;;;5.31
24201;BMP280;2801;50.972;7.856;2023-02-01T15:28:04;97639.03;;;5.30
24201;BMP280;2801;50.972;7.856;2023-02-01T15:30:35;97640.13;;;5.29
24201;BMP280;2801;50.972;7.856;2023-02-01T15:33:17;97644.88;;;5.32
24201;BMP280;2801;50.972;7.856;2023-02-01T15:35:54;97648.38;;;5.27
24201;BMP280;2801;50.972;7.856;2023-02-01T15:38:37;97643.34;;;5.26
24201;BMP280;2801;50.972;7.856;2023-02-01T15:41:31;97652.06;;;5.31
24201;BMP280;2801;50.972;7.856;2023-02-01T15:46:41;97649.66;;;5.30
24201;BMP280;2801;50.972;7.856;2023-02-01T15:49:37;97643.28;;;5.31
24201;BMP280;2801;50.972;7.856;2023-02-01T15:52:24;97650.47;;;5.30
24201;BMP280;2801;50.972;7.856;2023-02-01T15:54:57;97653.34;;;5.34
24201;BMP280;2801;50.972;7.856;2023-02-01T15:57:32;97649.41;;;5.31
24201;BMP280;2801;50.972;7.856;2023-02-01T16:00:08;97645.16;;;5.30
24201;BMP280;2801;50.972;7.856;2023-02-01T16:03:00;97644.34;;;5.30
24201;BMP280;2801;50.972;7.856;2023-02-01T16:05:42;97645.38;;;5.34
24201;BMP280;2801;50.972;7.856;2023-02-01T16:08:20;97645.66;;;5.32
24201;BMP280;2801;50.972;7.856;2023-02-01T16:11:01;97645.66;;;5.32
24201;BMP280;2801;50.972;7.856;2023-02-01T16:13:28;97656.00;;;5.34
24201;BMP280;2801;50.972;7.856;2023-02-01T16:15:56;97649.59;;;5.35
24201;BMP280;2801;50.972;7.856;2023-02-01T16:18:26;97660.22;;;5.35
24201;BMP280;2801;50.972;7.856;2023-02-01T16:20:52;97660.22;;;5.35
24201;BMP280;2801;50.972;7.856;2023-02-01T16:23:19;97658.31;;;5.40
24201;BMP280;2801;50.972;7.856;2023-02-01T16:25:47;97666.34;;;5.35
24201;BMP280;2801;50.972;7.856;2023-02-01T16:28:13;97677.50;;;5.37
24201;BMP280;2801;50.972;7.856;2023-02-01T16:30:40;97676.44;;;5.38
24201;BMP280;2801;50.972;7.856;2023-02-01T16:33:16;97679.38;;;5.37
24201;BMP280;2801;50.972;7.856;2023-02-01T16:35:46;97672.19;;;5.37
24201;BMP280;2801;50.972;7.856;2023-02-01T16:38:17;97675.13;;;5.36
24201;BMP280;2801;50.972;7.856;2023-02-01T16:40:46;97677.19;;;5.39
24201;BMP280;2801;50.972;7.856;2023-02-01T16:43:22;97681.97;;;5.42
24201;BMP280;2801;50.972;7.856;2023-02-01T16:45:53;97677.72;;;5.41
24201;BMP280;2801;50.972;7.856;2023-02-01T16:48:27;97688.84;;;5.43
24201;BMP280;2801;50.972;7.856;2023-02-01T16:51:01;97684.91;;;5.40
24201;BMP280;2801;50.972;7.856;2023-02-01T16:53:30;97682.69;;;5.47
24201;BMP280;2801;50.972;7.856;2023-02-01T16:56:29;97677.66;;;5.46